sensor_id;sensor_type;location;lat;lon;timestamp;pressure;altitude;pressure_sealevel;temperature;humidity
28626;BME280;18905;42.668;23.364;2023-03-29T00:02:15;95444.00;;;0.00;100.00
28626;BME280;18905;42.668;23.364;2023-03-29T00:04:41;95444.72;;;-0.04;100.00
28626;BME280;18905;42.668;23.364;2023-03-29T00:07:07;95389.50;;;-0.24;100.00
28626;BME280;18905;42.668;23.364;2023-03-29T00:09:32;95349.25;;;-0.54;100.00
28626;BME280;18905;42.668;23.364;2023-03-29T00:11:59;95362.66;;;-0.44;100.00
28626;BME280;18905;42.668;23.364;2023-03-29T00:14:25;95318.72;;;-0.56;100.00
28626;BME280;18905;42.668;23.364;2023-03-29T00:16:51;95440.91;;;0.47;100.00
28626;BME280;18905;42.668;23.364;2023-03-29T00:19:16;95428.53;;;0.14;100.00
28626;BME280;18905;42.668;23.364;2023-03-29T00:21:42;95382.59;;;-0.25;100.00
28626;BME280;18905;42.668;23.364;2023-03-29T00:24:07;95434.09;;;0.13;100.00
28626;BME280;18905;42.668;23.364;2023-03-29T00:26:33;95351.22;;;-0.28;100.00
28626;BME280;18905;42.668;23.364;2023-03-29T00:28:58;95406.63;;;-0.15;100.00
28626;BME280;18905;42.668;23.364;2023-03-29T00:31:23;95337.19;;;-0.45;100.00
28626;BME280;18905;42.668;23.364;2023-03-29T00:33:49;95341.91;;;-0.30;100.00
28626;BME280;18905;42.668;23.364;2023-03-29T00:36:14;95402.16;;;0.08;100.00
28626;BME280;18905;42.668;23.364;2023-03-29T00:38:40;95417.72;;;0.20;100.00
28626;BME280;18905;42.668;23.364;2023-03-29T00:41:07;95434.28;;;0.28;100.00
28626;BME280;18905;42.668;23.364;2023-03-29T00:43:59;95442.19;;;0.22;100.00
28626;BME280;18905;42.668;23.364;2023-03-29T00:46:27;95425.47;;;0.05;100.00
28626;BME280;18905;42.668;23.364;2023-03-29T00:48:59;95381.03;;;-0.04;100.00
28626;BME280;18905;42.668;23.364;2023-03-29T00:51:29;95418.78;;;0.19;100.00
28626;BME280;18905;42.668;23.364;2023-03-29T00:53:58;95440.22;;;-0.04;100.00
28626;BME280;18905;42.668;23.364;2023-03-29T00:56:32;95396.56;;;-0.13;100.00
28626;BME280;18905;42.668;23.364;2023-03-29T00:59:06;95443.22;;;0.00;100.00
28626;BME280;18905;42.668;23.364;2023-03-29T01:01:56;95429.56;;;0.13;100.00
28626;BME280;18905;42.668;23.364;2023-03-29T01:04:40;95436.75;;;0.13;100.00
28626;BME280;18905;42.668;23.364;2023-03-29T01:07:12;95441.91;;;0.03;100.00
28626;BME280;18905;42.668;23.364;2023-03-29T01:09:42;95439.00;;;-0.13;100.00
28626;BME280;18905;42.668;23.364;2023-03-29T01:12:16;95423.25;;;-0.19;100.00
28626;BME280;18905;42.668;23.364;2023-03-29T01:14:57;95452.03;;;0.05;100.00
28626;BME280;18905;42.668;23.364;2023-03-29T01:17:23;95434.69;;;-0.19;100.00
28626;BME280;18905;42.668;23.364;2023-03-29T01:20:02;95448.19;;;-0.04;100.00
28626;BME280;18905;42.668;23.364;2023-03-29T01:28:05;95456.47;;;-0.17;100.00
28626;BME280;18905;42.668;23.364;2023-03-29T01:30:41;95443.03;;;-0.10;100.00
28626;BME280;18905;42.668;23.364;2023-03-29T01:33:13;95429.72;;;-0.32;100.00
28626;BME280;18905;42.668;23.364;2023-03-29T01:36:11;95454.81;;;0.15;100.00
28626;BME280;18905;42.668;23.364;2023-03-29T01:41:14;95435.81;;;-0.15;100.00
28626;BME280;18905;42.668;23.364;2023-03-29T01:43:44;95457.97;;;0.13;100.00
28626;BME280;18905;42.668;23.364;2023-03-29T01:46:34;95452.84;;;0.06;100.00
28626;BME280;18905;42.668;23.364;2023-03-29T01:49:07;95456.38;;;0.12;100.00
28626;BME280;18905;42.668;23.364;2023-03-29T01:51:50;95453.97;;;0.10;100.00
28626;BME280;18905;42.668;23.364;2023-03-29T01:56:50;95421.22;;;0.04;100.00
28626;BME280;18905;42.668;23.364;2023-03-29T01:59:19;95430.97;;;-0.01;100.00
28626;BME280;18905;42.668;23.364;2023-03-29T02:01:56;95399.47;;;-0.31;100.00
28626;BME280;18905;42.668;23.364;2023-03-29T02:04:45;95417.63;;;-0.23;100.00
28626;BME280;18905;42.668;23.364;2023-03-29T02:07:15;95455.53;;;-0.11;100.00
28626;BME280;18905;42.668;23.364;2023-03-29T02:09:42;95447.47;;;-0.16;100.00
28626;BME280;18905;42.668;23.364;2023-03-29T02:12:10;95465.38;;;0.10;100.00
28626;BME280;18905;42.668;23.364;2023-03-29T02:14:36;95364.13;;;-0.53;100.00
28626;BME280;18905;42.668;23.364;2023-03-29T02:17:22;95465.63;;;-0.08;100.00
28626;BME280;18905;42.668;23.364;2023-03-29T02:19:52;95468.28;;;-0.08;100.00
28626;BME280;18905;42.668;23.364;2023-03-29T02:22:26;95447.22;;;-0.31;100.00
28626;BME280;18905;42.668;23.364;2023-03-29T02:24:54;95450.47;;;-0.29;100.00
28626;BME280;18905;42.668;23.364;2023-03-29T02:27:25;95471.84;;;-0.02;100.00
28626;BME280;18905;42.668;23.364;2023-03-29T02:29:51;95467.09;;;-0.17;100.00
28626;BME280;18905;42.668;23.364;2023-03-29T02:35:16;95446.03;;;-0.40;100.00
28626;BME280;18905;42.668;23.364;2023-03-29T02:37:46;95462.91;;;-0.13;100.00
28626;BME280;18905;42.668;23.364;2023-03-29T02:40:14;95469.44;;;-0.20;100.00
28626;BME280;18905;42.668;23.364;2023-03-29T02:42:43;95464.53;;;0.05;100.00
28626;BME280;18905;42.668;23.364;2023-03-29T02:45:11;95473.66;;;-0.03;100.00
28626;BME280;18905;42.668;23.364;2023-03-29T02:47:41;95462.19;;;-0.25;100.00
28626;BME280;18905;42.668;23.364;2023-03-29T02:50:09;95415.06;;;-0.51;100.00
28626;BME280;18905;42.668;23.364;2023-03-29T02:52:37;95486.16;;;-0.03;100.00
28626;BME280;18905;42.668;23.364;2023-03-29T02:55:08;95482.91;;;-0.05;100.00
28626;BME280;18905;42.668;23.364;2023-03-29T02:57:38;95445.31;;;-0.35;100.00
28626;BME280;18905;42.668;23.364;2023-03-29T03:00:05;95392.00;;;-0.67;100.00
28626;BME280;18905;42.668;23.364;2023-03-29T03:02:34;95493.31;;;-0.04;100.00
28626;BME280;18905;42.668;23.364;2023-03-29T03:05:00;95402.88;;;-0.68;100.00
28626;BME280;18905;42.668;23.364;2023-03-29T03:07:25;95482.94;;;-0.22;100.00
28626;BME280;18905;42.668;23.364;2023-03-29T03:09:52;95466.53;;;-0.19;100.00
28626;BME280;18905;42.668;23.364;2023-03-29T03:12:18;95426.22;;;-0.65;100.00
28626;BME280;18905;42.668;23.364;2023-03-29T03:14:43;95410.91;;;-0.63;100.00
28626;BME280;18905;42.668;23.364;2023-03-29T03:17:09;95491.03;;;-0.12;100.00
28626;BME280;18905;42.668;23.364;2023-03-29T03:19:34;95477.78;;;-0.12;100.00
28626;BME280;18905;42.668;23.364;2023-03-29T03:22:00;95479.66;;;-0.29;100.00
28626;BME280;18905;42.668;23.364;2023-03-29T03:24:26;95495.28;;;-0.44;100.00
28626;BME280;18905;42.668;23.364;2023-03-29T03:26:52;95488.47;;;-0.23;100.00
28626;BME280;18905;42.668;23.364;2023-03-29T03:29:17;95483.31;;;-0.46;100.00
28626;BME280;18905;42.668;23.364;2023-03-29T03:31:43;95516.06;;;-0.24;100.00
28626;BME280;18905;42.668;23.364;2023-03-29T03:34:09;95442.81;;;-0.58;100.00
28626;BME280;18905;42.668;23.364;2023-03-29T03:36:35;95517.34;;;-0.27;100.00
28626;BME280;18905;42.668;23.364;2023-03-29T03:39:01;95520.66;;;-0.20;100.00
28626;BME280;18905;42.668;23.364;2023-03-29T03:41:30;95488.53;;;-0.35;100.00
28626;BME280;18905;42.668;23.364;2023-03-29T03:43:56;95514.31;;;-0.19;100.00
28626;BME280;18905;42.668;23.364;2023-03-29T03:46:22;95499.50;;;-0.31;100.00
28626;BME280;18905;42.668;23.364;2023-03-29T03:48:47;95513.09;;;-0.11;100.00
28626;BME280;18905;42.668;23.364;2023-03-29T03:51:13;95495.50;;;-0.34;100.00
28626;BME280;18905;42.668;23.364;2023-03-29T03:53:38;95474.72;;;-0.53;100.00
28626;BME280;18905;42.668;23.364;2023-03-29T03:56:04;95532.25;;;-0.09;100.00
28626;BME280;18905;42.668;23.364;2023-03-29T03:58:35;95531.28;;;-0.03;100.00
28626;BME280;18905;42.668;23.364;2023-03-29T04:01:01;95543.28;;;-0.01;100.00
28626;BME280;18905;42.668;23.364;2023-03-29T04:03:27;95512.34;;;-0.23;100.00
28626;BME280;18905;42.668;23.364;2023-03-29T04:05:52;95487.25;;;-0.49;100.00
28626;BME280;18905;42.668;23.364;2023-03-29T04:08:18;95466.94;;;-0.43;100.00
28626;BME280;18905;42.668;23.364;2023-03-29T04:10:54;95550.84;;;0.24;100.00
28626;BME280;18905;42.668;23.364;2023-03-29T04:13:21;95539.88;;;0.20;100.00
28626;BME280;18905;42.668;23.364;2023-03-29T04:15:46;95521.94;;;-0.06;100.00
28626;BME280;18905;42.668;23.364;2023-03-29T04:18:14;95527.19;;;-0.27;99.74
28626;BME280;18905;42.668;23.364;2023-03-29T04:20:41;95461.59;;;-0.76;99.04
28626;BME280;18905;42.668;23.364;2023-03-29T04:23:07;95547.13;;;-0.25;98.37
28626;BME280;18905;42.668;23.364;2023-03-29T04:25:32;95435.78;;;-0.81;97.94
28626;BME280;18905;42.668;23.364;2023-03-29T04:27:58;95498.88;;;0.12;93.79
28626;BME280;18905;42.668;23.364;2023-03-29T04:30:23;95547.69;;;0.10;91.38
28626;BME280;18905;42.668;23.364;2023-03-29T04:32:49;95545.38;;;0.69;89.86
28626;BME280;18905;42.668;23.364;2023-03-29T04:35:14;95472.13;;;0.18;87.10
28626;BME280;18905;42.668;23.364;2023-03-29T04:37:40;95480.75;;;0.08;87.57
28626;BME280;18905;42.668;23.364;2023-03-29T04:40:06;95566.44;;;0.37;89.68
28626;BME280;18905;42.668;23.364;2023-03-29T04:42:41;95479.06;;;-0.31;91.27
28626;BME280;18905;42.668;23.364;2023-03-29T04:45:09;95504.81;;;-0.31;93.10
28626;BME280;18905;42.668;23.364;2023-03-29T04:47:35;95505.38;;;-0.29;91.46
28626;BME280;18905;42.668;23.364;2023-03-29T04:50:04;95580.03;;;0.41;91.69
28626;BME280;18905;42.668;23.364;2023-03-29T04:52:30;95580.59;;;0.26;90.90
28626;BME280;18905;42.668;23.364;2023-03-29T04:54:58;95459.03;;;-0.71;91.46
28626;BME280;18905;42.668;23.364;2023-03-29T04:57:23;95582.31;;;0.32;91.25
28626;BME280;18905;42.668;23.364;2023-03-29T04:59:49;95499.66;;;-0.05;89.46
28626;BME280;18905;42.668;23.364;2023-03-29T05:02:14;95515.25;;;0.25;87.56
28626;BME280;18905;42.668;23.364;2023-03-29T05:04:40;95506.53;;;0.29;85.27
28626;BME280;18905;42.668;23.364;2023-03-29T05:07:05;95493.28;;;0.68;82.47
28626;BME280;18905;42.668;23.364;2023-03-29T05:09:31;95486.03;;;0.85;81.04
28626;BME280;18905;42.668;23.364;2023-03-29T05:11:56;95499.28;;;2.12;73.81
28626;BME280;18905;42.668;23.364;2023-03-29T05:14:22;95605.00;;;1.80;71.03
28626;BME280;18905;42.668;23.364;2023-03-29T05:16:48;95607.00;;;1.25;73.78
28626;BME280;18905;42.668;23.364;2023-03-29T05:19:13;95526.88;;;0.57;76.20
28626;BME280;18905;42.668;23.364;2023-03-29T05:21:39;95567.31;;;0.43;78.21
28626;BME280;18905;42.668;23.364;2023-03-29T05:24:04;95539.34;;;0.57;76.01
28626;BME280;18905;42.668;23.364;2023-03-29T05:26:30;95615.31;;;0.91;76.27
28626;BME280;18905;42.668;23.364;2023-03-29T05:28:55;95561.09;;;0.70;75.14
28626;BME280;18905;42.668;23.364;2023-03-29T05:31:22;95583.91;;;0.88;73.60
28626;BME280;18905;42.668;23.364;2023-03-29T05:33:48;95493.78;;;0.27;74.75
28626;BME280;18905;42.668;23.364;2023-03-29T05:36:16;95621.84;;;1.00;75.33
28626;BME280;18905;42.668;23.364;2023-03-29T05:38:42;95517.78;;;0.53;74.25
28626;BME280;18905;42.668;23.364;2023-03-29T05:41:12;95554.94;;;0.70;74.29
28626;BME280;18905;42.668;23.364;2023-03-29T05:43:37;95544.88;;;0.17;75.47
28626;BME280;18905;42.668;23.364;2023-03-29T05:46:03;95559.84;;;0.40;77.43
28626;BME280;18905;42.668;23.364;2023-03-29T05:48:30;95651.34;;;0.82;77.34
28626;BME280;18905;42.668;23.364;2023-03-29T05:50:55;95639.19;;;1.24;78.53
28626;BME280;18905;42.668;23.364;2023-03-29T05:53:23;95635.91;;;1.00;77.29
28626;BME280;18905;42.668;23.364;2023-03-29T05:55:49;95584.97;;;0.87;76.44
28626;BME280;18905;42.668;23.364;2023-03-29T05:58:16;95607.69;;;1.16;75.45
28626;BME280;18905;42.668;23.364;2023-03-29T06:00:43;95571.78;;;0.75;75.79
28626;BME280;18905;42.668;23.364;2023-03-29T06:03:17;95580.53;;;0.92;74.44
28626;BME280;18905;42.668;23.364;2023-03-29T06:05:47;95613.13;;;1.26;74.90
28626;BME280;18905;42.668;23.364;2023-03-29T06:08:14;95549.78;;;1.23;72.88
28626;BME280;18905;42.668;23.364;2023-03-29T06:10:40;95675.06;;;2.34;71.83
28626;BME280;18905;42.668;23.364;2023-03-29T06:13:05;95538.53;;;1.64;69.44
28626;BME280;18905;42.668;23.364;2023-03-29T06:15:32;95552.59;;;2.17;67.87
28626;BME280;18905;42.668;23.364;2023-03-29T06:17:59;95570.06;;;2.71;64.53
28626;BME280;18905;42.668;23.364;2023-03-29T06:20:25;95521.28;;;1.98;63.79
28626;BME280;18905;42.668;23.364;2023-03-29T06:22:50;95546.88;;;2.35;63.18
28626;BME280;18905;42.668;23.364;2023-03-29T06:25:16;95515.69;;;2.77;60.71
28626;BME280;18905;42.668;23.364;2023-03-29T06:27:44;95659.78;;;3.80;60.15
28626;BME280;18905;42.668;23.364;2023-03-29T06:30:11;95524.06;;;2.49;58.86
28626;BME280;18905;42.668;23.364;2023-03-29T06:32:37;95527.28;;;2.15;60.80
28626;BME280;18905;42.668;23.364;2023-03-29T06:35:02;95584.53;;;2.44;62.82
28626;BME280;18905;42.668;23.364;2023-03-29T06:37:29;95536.88;;;1.84;61.40
28626;BME280;18905;42.668;23.364;2023-03-29T06:39:56;95559.69;;;1.06;64.97
28626;BME280;18905;42.668;23.364;2023-03-29T06:42:22;95631.38;;;1.82;65.81
28626;BME280;18905;42.668;23.364;2023-03-29T06:44:48;95690.94;;;1.97;66.02
28626;BME280;18905;42.668;23.364;2023-03-29T06:47:15;95650.56;;;2.10;65.69
28626;BME280;18905;42.668;23.364;2023-03-29T06:49:41;95608.63;;;1.96;66.64
28626;BME280;18905;42.668;23.364;2023-03-29T06:52:07;95591.03;;;2.58;63.04
28626;BME280;18905;42.668;23.364;2023-03-29T06:54:32;95690.97;;;3.23;63.08
28626;BME280;18905;42.668;23.364;2023-03-29T06:56:59;95578.88;;;2.35;61.22
28626;BME280;18905;42.668;23.364;2023-03-29T06:59:24;95615.88;;;2.63;61.40
28626;BME280;18905;42.668;23.364;2023-03-29T07:01:51;95673.91;;;3.76;58.09
28626;BME280;18905;42.668;23.364;2023-03-29T07:11:25;95546.75;;;3.65;56.02
28626;BME280;18905;42.668;23.364;2023-03-29T12:25:52;95394.00;;;8.17;33.29
28626;BME280;18905;42.668;23.364;2023-03-29T12:28:24;95520.53;;;9.21;33.39
28626;BME280;18905;42.668;23.364;2023-03-29T12:31:17;95524.50;;;9.78;32.52
28626;BME280;18905;42.668;23.364;2023-03-29T12:41:01;95503.47;;;9.66;33.39
28626;BME280;18905;42.668;23.364;2023-03-29T12:43:39;95527.31;;;9.32;33.67
28626;BME280;18905;42.668;23.364;2023-03-29T13:15:46;95444.97;;;8.40;34.37
28626;BME280;18905;42.668;23.364;2023-03-29T13:18:49;95423.50;;;8.03;34.02
28626;BME280;18905;42.668;23.364;2023-03-29T13:40:45;95503.91;;;8.05;35.84
28626;BME280;18905;42.668;23.364;2023-03-29T13:43:53;95465.47;;;7.86;36.23
28626;BME280;18905;42.668;23.364;2023-03-29T13:46:41;95402.31;;;7.28;35.93
28626;BME280;18905;42.668;23.364;2023-03-29T13:49:37;95358.03;;;7.07;35.79
28626;BME280;18905;42.668;23.364;2023-03-29T13:52:39;95350.13;;;7.15;35.76
28626;BME280;18905;42.668;23.364;2023-03-29T13:55:30;95456.75;;;7.94;35.45
28626;BME280;18905;42.668;23.364;2023-03-29T14:04:51;95512.59;;;8.52;34.75
28626;BME280;18905;42.668;23.364;2023-03-29T14:07:26;95418.94;;;8.04;34.86
28626;BME280;18905;42.668;23.364;2023-03-29T14:10:34;95419.69;;;7.91;34.57
28626;BME280;18905;42.668;23.364;2023-03-29T14:13:24;95432.03;;;8.10;34.12
28626;BME280;18905;42.668;23.364;2023-03-29T14:18:41;95416.63;;;7.97;33.15
28626;BME280;18905;42.668;23.364;2023-03-29T14:21:12;95427.66;;;7.96;33.05
28626;BME280;18905;42.668;23.364;2023-03-29T14:23:46;95501.84;;;8.52;33.02
28626;BME280;18905;42.668;23.364;2023-03-29T14:26:22;95510.94;;;8.38;34.05
28626;BME280;18905;42.668;23.364;2023-03-29T14:28:51;95418.59;;;7.92;33.83
28626;BME280;18905;42.668;23.364;2023-03-29T14:31:20;95448.16;;;8.10;34.43
28626;BME280;18905;42.668;23.364;2023-03-29T14:34:16;95511.88;;;8.47;34.04
28626;BME280;18905;42.668;23.364;2023-03-29T14:36:46;95421.25;;;8.10;34.56
28626;BME280;18905;42.668;23.364;2023-03-29T14:41:57;95513.72;;;8.33;34.57
28626;BME280;18905;42.668;23.364;2023-03-29T14:45:17;95503.63;;;8.25;33.76
28626;BME280;18905;42.668;23.364;2023-03-29T14:48:16;95518.78;;;8.16;33.70
28626;BME280;18905;42.668;23.364;2023-03-29T14:54:19;95517.59;;;8.27;34.23
28626;BME280;18905;42.668;23.364;2023-03-29T14:57:02;95394.19;;;7.14;34.28
28626;BME280;18905;42.668;23.364;2023-03-29T14:59:57;95457.47;;;7.81;34.12
28626;BME280;18905;42.668;23.364;2023-03-29T15:02:35;95369.78;;;7.11;34.92
28626;BME280;18905;42.668;23.364;2023-03-29T15:08:38;95433.78;;;7.46;34.06
28626;BME280;18905;42.668;23.364;2023-03-29T15:11:25;95368.78;;;7.07;34.76
28626;BME280;18905;42.668;23.364;2023-03-29T15:26:11;95428.75;;;7.21;35.84
28626;BME280;18905;42.668;23.364;2023-03-29T15:29:40;95534.78;;;7.89;36.19
28626;BME280;18905;42.668;23.364;2023-03-29T15:32:31;95545.84;;;7.87;36.87
28626;BME280;18905;42.668;23.364;2023-03-29T15:35:27;95453.91;;;7.25;37.00
28626;BME280;18905;42.668;23.364;2023-03-29T15:37:59;95376.34;;;6.81;37.22
28626;BME280;18905;42.668;23.364;2023-03-29T15:43:12;95424.88;;;6.85;37.49
28626;BME280;18905;42.668;23.364;2023-03-29T15:45:49;95385.63;;;6.42;37.81
28626;BME280;18905;42.668;23.364;2023-03-29T15:48:26;95510.78;;;7.32;37.63
28626;BME280;18905;42.668;23.364;2023-03-29T15:51:26;95471.25;;;6.90;37.84
28626;BME280;18905;42.668;23.364;2023-03-29T15:53:59;95522.69;;;7.02;38.37
28626;BME280;18905;42.668;23.364;2023-03-29T15:56:46;95472.22;;;6.47;38.16
28626;BME280;18905;42.668;23.364;2023-03-29T15:59:18;95463.06;;;6.25;39.28
28626;BME280;18905;42.668;23.364;2023-03-29T16:01:52;95405.97;;;5.91;38.92
28626;BME280;18905;42.668;23.364;2023-03-29T16:04:36;95525.06;;;6.47;38.91
28626;BME280;18905;42.668;23.364;2023-03-29T16:07:14;95562.34;;;6.48;39.01
28626;BME280;18905;42.668;23.364;2023-03-29T16:09:43;95416.94;;;5.56;38.99
28626;BME280;18905;42.668;23.364;2023-03-29T16:12:12;95512.44;;;6.19;39.50
28626;BME280;18905;42.668;23.364;2023-03-29T16:14:40;95449.78;;;5.66;39.26
28626;BME280;18905;42.668;23.364;2023-03-29T16:17:06;95421.28;;;5.42;39.39
28626;BME280;18905;42.668;23.364;2023-03-29T16:19:32;95445.59;;;5.55;39.63
28626;BME280;18905;42.668;23.364;2023-03-29T16:22:00;95564.16;;;6.24;39.83
28626;BME280;18905;42.668;23.364;2023-03-29T16:24:30;95563.66;;;6.17;40.19
28626;BME280;18905;42.668;23.364;2023-03-29T16:26:57;95560.97;;;6.17;40.68
28626;BME280;18905;42.668;23.364;2023-03-29T16:29:23;95591.97;;;6.33;40.98
28626;BME280;18905;42.668;23.364;2023-03-29T16:31:49;95593.81;;;6.38;41.05
28626;BME280;18905;42.668;23.364;2023-03-29T16:34:15;95557.66;;;6.30;43.73
28626;BME280;18905;42.668;23.364;2023-03-29T16:36:42;95595.66;;;6.42;41.84
28626;BME280;18905;42.668;23.364;2023-03-29T16:39:08;95566.38;;;6.12;41.87
28626;BME280;18905;42.668;23.364;2023-03-29T16:41:35;95596.84;;;6.26;42.20
28626;BME280;18905;42.668;23.364;2023-03-29T16:44:02;95546.84;;;6.07;42.31
28626;BME280;18905;42.668;23.364;2023-03-29T16:46:27;95605.88;;;6.40;42.26
28626;BME280;18905;42.668;23.364;2023-03-29T16:48:53;95573.28;;;6.23;42.70
28626;BME280;18905;42.668;23.364;2023-03-29T16:51:19;95550.38;;;5.97;42.72
28626;BME280;18905;42.668;23.364;2023-03-29T16:53:45;95577.63;;;6.14;42.75
28626;BME280;18905;42.668;23.364;2023-03-29T16:56:16;95586.44;;;6.20;43.08
28626;BME280;18905;42.668;23.364;2023-03-29T16:58:41;95601.97;;;6.23;43.55
28626;BME280;18905;42.668;23.364;2023-03-29T17:01:13;95586.03;;;5.98;43.73
28626;BME280;18905;42.668;23.364;2023-03-29T17:03:39;95561.13;;;5.92;43.83
28626;BME280;18905;42.668;23.364;2023-03-29T17:06:05;95580.59;;;6.13;43.73
28626;BME280;18905;42.668;23.364;2023-03-29T17:08:32;95574.47;;;6.02;43.48
28626;BME280;18905;42.668;23.364;2023-03-29T17:10:57;95569.81;;;6.18;44.08
28626;BME280;18905;42.668;23.364;2023-03-29T17:13:23;95618.84;;;6.28;43.72
28626;BME280;18905;42.668;23.364;2023-03-29T17:15:52;95610.75;;;6.33;43.90
28626;BME280;18905;42.668;23.364;2023-03-29T17:18:19;95601.84;;;6.38;44.07
28626;BME280;18905;42.668;23.364;2023-03-29T17:20:44;95586.56;;;6.00;44.50
28626;BME280;18905;42.668;23.364;2023-03-29T17:23:10;95599.94;;;6.05;44.25
28626;BME280;18905;42.668;23.364;2023-03-29T17:25:36;95511.66;;;5.65;42.91
28626;BME280;18905;42.668;23.364;2023-03-29T17:28:01;95599.81;;;6.25;43.10
28626;BME280;18905;42.668;23.364;2023-03-29T17:30:27;95558.97;;;5.94;43.25
28626;BME280;18905;42.668;23.364;2023-03-29T17:32:52;95602.66;;;5.95;43.55
28626;BME280;18905;42.668;23.364;2023-03-29T17:35:18;95581.28;;;5.80;42.83
28626;BME280;18905;42.668;23.364;2023-03-29T17:37:43;95626.97;;;6.13;43.08
28626;BME280;18905;42.668;23.364;2023-03-29T17:40:10;95603.75;;;5.94;43.30
28626;BME280;18905;42.668;23.364;2023-03-29T17:42:39;95615.81;;;5.91;43.70
28626;BME280;18905;42.668;23.364;2023-03-29T17:45:06;95639.59;;;6.08;43.11
28626;BME280;18905;42.668;23.364;2023-03-29T17:47:31;95613.91;;;6.02;42.75
28626;BME280;18905;42.668;23.364;2023-03-29T17:49:57;95615.56;;;5.93;43.20
28626;BME280;18905;42.668;23.364;2023-03-29T17:52:22;95604.22;;;6.01;43.28
28626;BME280;18905;42.668;23.364;2023-03-29T17:54:47;95614.63;;;6.12;42.60
28626;BME280;18905;42.668;23.364;2023-03-29T17:57:13;95601.84;;;5.99;42.85
28626;BME280;18905;42.668;23.364;2023-03-29T17:59:38;95598.97;;;5.86;42.17
28626;BME280;18905;42.668;23.364;2023-03-29T18:02:04;95616.63;;;5.87;42.95
28626;BME280;18905;42.668;23.364;2023-03-29T18:04:31;95644.16;;;6.07;43.00
28626;BME280;18905;42.668;23.364;2023-03-29T18:06:58;95628.34;;;6.06;43.29
28626;BME280;18905;42.668;23.364;2023-03-29T18:09:23;95630.00;;;6.02;44.81
28626;BME280;18905;42.668;23.364;2023-03-29T18:11:50;95616.28;;;6.03;49.02
28626;BME280;18905;42.668;23.364;2023-03-29T18:14:15;95646.25;;;6.15;43.29
28626;BME280;18905;42.668;23.364;2023-03-29T18:16:40;95655.38;;;6.14;43.12
28626;BME280;18905;42.668;23.364;2023-03-29T18:19:06;95629.69;;;6.03;43.51
28626;BME280;18905;42.668;23.364;2023-03-29T18:21:31;95646.06;;;6.02;43.60
28626;BME280;18905;42.668;23.364;2023-03-29T18:23:57;95642.56;;;6.01;43.66
28626;BME280;18905;42.668;23.364;2023-03-29T18:26:22;95654.59;;;6.09;43.58
28626;BME280;18905;42.668;23.364;2023-03-29T18:28:48;95654.66;;;5.99;43.76
28626;BME280;18905;42.668;23.364;2023-03-29T18:31:14;95558.44;;;5.34;44.41
28626;BME280;18905;42.668;23.364;2023-03-29T18:33:40;95596.88;;;5.63;44.23
28626;BME280;18905;42.668;23.364;2023-03-29T18:36:06;95646.84;;;6.02;43.85
28626;BME280;18905;42.668;23.364;2023-03-29T18:38:33;95647.72;;;5.83;44.46
28626;BME280;18905;42.668;23.364;2023-03-29T18:41:03;95644.28;;;5.82;44.72
28626;BME280;18905;42.668;23.364;2023-03-29T18:43:30;95648.78;;;5.92;45.17
28626;BME280;18905;42.668;23.364;2023-03-29T18:45:56;95595.81;;;5.59;44.83
28626;BME280;18905;42.668;23.364;2023-03-29T18:48:21;95594.25;;;5.53;45.73
28626;BME280;18905;42.668;23.364;2023-03-29T18:50:47;95633.03;;;5.70;45.50
28626;BME280;18905;42.668;23.364;2023-03-29T18:53:13;95642.91;;;5.80;45.55
28626;BME280;18905;42.668;23.364;2023-03-29T18:55:42;95639.69;;;5.93;45.91
28626;BME280;18905;42.668;23.364;2023-03-29T18:58:11;95608.13;;;5.60;45.90
28626;BME280;18905;42.668;23.364;2023-03-29T19:00:38;95646.13;;;5.87;45.99
28626;BME280;18905;42.668;23.364;2023-03-29T19:03:04;95558.44;;;5.34;45.25
28626;BME280;18905;42.668;23.364;2023-03-29T19:05:30;95632.72;;;5.87;45.50
28626;BME280;18905;42.668;23.364;2023-03-29T19:07:57;95644.75;;;5.99;45.88
28626;BME280;18905;42.668;23.364;2023-03-29T19:10:22;95614.38;;;6.09;49.03
28626;BME280;18905;42.668;23.364;2023-03-29T19:12:49;95541.38;;;5.73;48.04
28626;BME280;18905;42.668;23.364;2023-03-29T19:15:15;95641.56;;;6.36;49.44
28626;BME280;18905;42.668;23.364;2023-03-29T19:17:40;95657.22;;;6.19;49.75
28626;BME280;18905;42.668;23.364;2023-03-29T19:20:12;95641.44;;;6.12;48.09
28626;BME280;18905;42.668;23.364;2023-03-29T19:22:38;95569.84;;;7.37;79.49
28626;BME280;18905;42.668;23.364;2023-03-29T19:25:04;95628.84;;;6.90;51.54
28626;BME280;18905;42.668;23.364;2023-03-29T19:27:31;95603.75;;;6.37;51.07
28626;BME280;18905;42.668;23.364;2023-03-29T19:29:57;95567.72;;;6.10;50.17
28626;BME280;18905;42.668;23.364;2023-03-29T19:32:23;95555.03;;;5.82;50.78
28626;BME280;18905;42.668;23.364;2023-03-29T19:34:48;95631.50;;;6.18;50.30
28626;BME280;18905;42.668;23.364;2023-03-29T19:37:14;95596.19;;;6.01;50.25
28626;BME280;18905;42.668;23.364;2023-03-29T19:39:42;95557.94;;;5.90;50.70
28626;BME280;18905;42.668;23.364;2023-03-29T19:42:07;95594.13;;;5.83;50.31
28626;BME280;18905;42.668;23.364;2023-03-29T19:44:33;95566.63;;;5.57;50.44
28626;BME280;18905;42.668;23.364;2023-03-29T19:47:00;95641.72;;;6.16;50.73
28626;BME280;18905;42.668;23.364;2023-03-29T19:49:25;95631.00;;;6.06;51.16
28626;BME280;18905;42.668;23.364;2023-03-29T19:51:50;95641.69;;;6.21;51.69
28626;BME280;18905;42.668;23.364;2023-03-29T19:54:19;95608.63;;;5.82;50.68
28626;BME280;18905;42.668;23.364;2023-03-29T19:56:45;95631.28;;;6.09;51.33
28626;BME280;18905;42.668;23.364;2023-03-29T19:59:11;95571.09;;;5.77;51.02
28626;BME280;18905;42.668;23.364;2023-03-29T20:01:39;95575.69;;;5.71;50.91
28626;BME280;18905;42.668;23.364;2023-03-29T20:04:07;95648.06;;;6.30;51.07
28626;BME280;18905;42.668;23.364;2023-03-29T20:06:33;95602.91;;;5.98;50.75
28626;BME280;18905;42.668;23.364;2023-03-29T20:08:58;95617.63;;;6.01;50.58
28626;BME280;18905;42.668;23.364;2023-03-29T20:11:24;95541.16;;;5.60;51.30
28626;BME280;18905;42.668;23.364;2023-03-29T20:13:50;95568.41;;;5.77;51.30